createdAt,value
2018-04-26T00:01:15.299Z,78.00
2018-04-26T00:03:44.090Z,78.00
2018-04-26T00:06:12.897Z,78.50
2018-04-26T00:08:41.589Z,78.70
2018-04-26T00:11:10.386Z,79.10
2018-04-26T00:13:39.105Z,79.50
2018-04-26T00:16:08.402Z,80.20
2018-04-26T00:18:38.881Z,80.80
2018-04-26T00:21:12.068Z,80.80
2018-04-26T00:23:40.814Z,82.00
2018-04-26T00:26:09.526Z,82.20
2018-04-26T00:28:38.126Z,82.40
2018-04-26T00:31:07.845Z,82.40
2018-04-26T00:33:36.614Z,82.60
2018-04-26T00:36:07.808Z,79.70
2018-04-26T00:38:37.460Z,79.10
2018-04-26T00:41:06.962Z,79.00
2018-04-26T00:43:36.293Z,79.00
2018-04-26T00:46:05.302Z,79.80
2018-04-26T00:48:34.691Z,79.50
2018-04-26T00:51:04.133Z,80.40
2018-04-26T00:53:32.845Z,80.40
2018-04-26T00:56:01.489Z,81.10
2018-04-26T00:58:30.214Z,82.10
2018-04-26T01:01:00.482Z,85.10
2018-04-26T01:03:29.451Z,85.10
2018-04-26T01:05:58.939Z,86.40
2018-04-26T01:08:27.974Z,86.40
2018-04-26T01:10:57.784Z,86.70
2018-04-26T01:13:27.055Z,85.50
2018-04-26T01:15:55.706Z,84.40
2018-04-26T01:18:25.276Z,82.60
2018-04-26T01:20:53.864Z,82.40
2018-04-26T01:23:22.684Z,81.80
2018-04-26T01:25:51.369Z,81.00
2018-04-26T01:28:20.045Z,81.10
2018-04-26T01:30:48.820Z,81.90
2018-04-26T01:33:17.635Z,84.50
2018-04-26T01:35:46.571Z,85.50
2018-04-26T01:38:15.353Z,86.10
2018-04-26T01:40:44.323Z,86.50
2018-04-26T01:43:14.430Z,87.00
2018-04-26T01:45:43.924Z,87.30
2018-04-26T01:48:12.740Z,87.30
2018-04-26T01:50:41.367Z,87.60
2018-04-26T01:53:10.224Z,87.50
2018-04-26T01:55:39.183Z,87.80
2018-04-26T01:58:07.970Z,88.00
2018-04-26T02:00:36.675Z,86.10
2018-04-26T02:03:05.390Z,85.90
2018-04-26T02:05:34.098Z,86.00
2018-04-26T02:08:02.789Z,86.10
2018-04-26T02:10:31.619Z,85.80
2018-04-26T02:13:01.074Z,85.90
2018-04-26T02:15:31.193Z,86.30
2018-04-26T02:17:59.986Z,86.20
2018-04-26T02:20:28.738Z,86.30
2018-04-26T02:22:57.347Z,87.30
2018-04-26T02:25:26.109Z,87.80
2018-04-26T02:27:54.926Z,87.60
2018-04-26T02:30:23.714Z,87.30
2018-04-26T02:32:52.479Z,87.50
2018-04-26T02:35:21.262Z,87.60
2018-04-26T02:37:50.061Z,87.80
2018-04-26T02:40:18.869Z,88.60
2018-04-26T02:42:47.897Z,89.30
2018-04-26T02:45:18.379Z,90.10
2018-04-26T02:47:48.467Z,90.30
2018-04-26T02:50:18.113Z,90.30
2018-04-26T02:52:46.831Z,90.50
2018-04-26T02:55:15.717Z,90.60
2018-04-26T02:57:44.513Z,90.50
2018-04-26T03:00:13.313Z,90.50
2018-04-26T03:02:42.756Z,89.60
2018-04-26T03:05:11.416Z,89.60
2018-04-26T03:07:40.240Z,88.80
2018-04-26T03:10:09.715Z,88.90
2018-04-26T03:12:38.733Z,88.90
2018-04-26T03:15:07.917Z,88.90
2018-04-26T03:17:36.746Z,89.30
2018-04-26T03:20:05.444Z,89.60
2018-04-26T03:22:34.164Z,89.90
2018-04-26T03:25:02.835Z,90.10
2018-04-26T03:27:32.156Z,90.30
2018-04-26T03:30:01.709Z,90.60
2018-04-26T03:32:30.437Z,90.30
2018-04-26T03:34:59.856Z,90.50
2018-04-26T03:37:28.572Z,90.80
2018-04-26T03:39:57.343Z,90.90
2018-04-26T03:42:27.098Z,91.00
2018-04-26T03:44:56.287Z,91.00
2018-04-26T03:47:26.275Z,91.00
2018-04-26T03:49:55.089Z,91.00
2018-04-26T03:52:23.891Z,90.90
2018-04-26T03:54:52.457Z,90.60
2018-04-26T03:57:21.206Z,90.30
2018-04-26T04:00:08.453Z,90.60
2018-04-26T04:02:54.932Z,90.90
2018-04-26T04:08:35.540Z,91.00
2018-04-26T04:11:05.088Z,91.20
2018-04-26T04:13:35.661Z,91.20
2018-04-26T04:16:04.430Z,91.20
2018-04-26T04:18:34.370Z,91.00
2018-04-26T04:21:04.005Z,91.10
2018-04-26T04:23:33.611Z,91.00
2018-04-26T04:26:02.257Z,90.90
2018-04-26T04:28:30.992Z,90.70
2018-04-26T04:30:59.712Z,90.40
2018-04-26T04:33:28.554Z,90.40
2018-04-26T04:35:58.247Z,90.50
2018-04-26T04:38:28.143Z,90.50
2018-04-26T04:40:57.974Z,90.80
2018-04-26T04:43:27.074Z,90.60
2018-04-26T04:45:56.653Z,90.50
2018-04-26T04:48:25.794Z,90.40
2018-04-26T04:50:55.395Z,90.70
2018-04-26T04:53:24.151Z,89.90
2018-04-26T04:55:52.910Z,90.20
2018-04-26T04:58:21.709Z,90.30
2018-04-26T05:00:50.635Z,90.50
2018-04-26T05:03:19.329Z,90.50
2018-04-26T05:05:48.006Z,90.60
2018-04-26T05:08:18.114Z,90.40
2018-04-26T05:10:47.349Z,90.40
2018-04-26T05:13:16.837Z,90.20
2018-04-26T05:15:45.783Z,90.00
2018-04-26T05:18:15.590Z,89.20
2018-04-26T05:20:44.358Z,89.10
2018-04-26T05:23:13.918Z,89.10
2018-04-26T05:25:42.743Z,88.60
2018-04-26T05:28:11.521Z,88.00
2018-04-26T05:30:40.240Z,88.40
2018-04-26T05:33:09.053Z,87.80
2018-04-26T05:35:37.854Z,86.10
2018-04-26T05:38:07.344Z,84.00
2018-04-26T05:40:37.549Z,79.90
2018-04-26T05:43:06.871Z,77.20
2018-04-26T05:45:35.518Z,77.20
2018-04-26T05:48:05.094Z,72.50
2018-04-26T05:50:33.812Z,72.40
2018-04-26T05:53:02.545Z,70.50
2018-04-26T05:55:31.219Z,70.80
2018-04-26T05:58:00.239Z,69.60
2018-04-26T06:00:28.989Z,69.10
2018-04-26T06:02:57.974Z,66.70
2018-04-26T06:05:27.169Z,68.10
2018-04-26T06:07:56.439Z,67.70
2018-04-26T06:10:26.202Z,66.40
2018-04-26T06:12:55.101Z,66.40
2018-04-26T06:15:24.529Z,65.40
2018-04-26T06:17:54.079Z,62.90
2018-04-26T06:20:23.053Z,62.80
2018-04-26T06:22:51.863Z,62.00
2018-04-26T06:25:20.603Z,60.00
2018-04-26T06:27:49.483Z,58.70
2018-04-26T06:30:18.140Z,59.10
2018-04-26T06:32:46.728Z,58.80
2018-04-26T06:35:15.686Z,58.30
2018-04-26T06:37:44.370Z,57.90
2018-04-26T06:40:14.657Z,57.40
2018-04-26T06:42:43.888Z,58.10
2018-04-26T06:45:13.490Z,59.00
2018-04-26T06:47:42.236Z,59.00
2018-04-26T06:50:11.016Z,58.50
2018-04-26T06:52:39.673Z,56.60
2018-04-26T06:55:08.391Z,57.30
2018-04-26T06:57:37.050Z,56.30
2018-04-26T07:00:06.845Z,54.70
2018-04-26T07:02:35.429Z,54.70
2018-04-26T07:05:04.067Z,53.60
2018-04-26T07:07:32.773Z,54.30
2018-04-26T07:10:02.962Z,56.50
2018-04-26T07:12:31.931Z,57.10
2018-04-26T07:15:01.052Z,56.80
2018-04-26T07:17:29.669Z,54.70
2018-04-26T07:19:58.514Z,53.50
2018-04-26T07:22:27.323Z,53.80
2018-04-26T07:24:55.999Z,51.80
2018-04-26T07:27:25.444Z,50.80
2018-04-26T07:29:54.859Z,50.40
2018-04-26T07:32:24.205Z,50.00
2018-04-26T07:34:52.830Z,50.00
2018-04-26T07:37:21.552Z,47.50
2018-04-26T07:39:50.156Z,46.90
2018-04-26T07:42:19.504Z,47.20
2018-04-26T07:44:48.935Z,47.30
2018-04-26T07:47:18.425Z,45.90
2018-04-26T07:49:47.135Z,45.90
2018-04-26T07:52:15.735Z,45.30
2018-04-26T07:54:44.493Z,45.00
2018-04-26T07:57:13.924Z,44.40
2018-04-26T07:59:43.313Z,44.40
2018-04-26T08:02:12.045Z,44.30
2018-04-26T08:04:40.767Z,42.50
2018-04-26T08:07:10.221Z,40.50
2018-04-26T08:09:39.027Z,40.50
2018-04-26T08:12:07.813Z,40.50
2018-04-26T08:14:38.127Z,40.90
2018-04-26T08:17:07.813Z,40.90
2018-04-26T08:19:36.761Z,40.00
2018-04-26T08:22:05.560Z,40.00
2018-04-26T08:24:34.237Z,37.40
2018-04-26T08:27:03.884Z,36.50
2018-04-26T08:29:32.737Z,35.00
2018-04-26T08:32:01.379Z,35.50
2018-04-26T08:34:30.101Z,36.90
2018-04-26T08:36:59.353Z,39.60
2018-04-26T08:39:28.136Z,39.80
2018-04-26T08:41:57.471Z,38.90
2018-04-26T08:44:27.001Z,38.70
2018-04-26T08:46:56.114Z,37.30
2018-04-26T08:49:26.086Z,35.60
2018-04-26T08:51:55.898Z,35.00
2018-04-26T08:54:25.462Z,34.90
2018-04-26T08:56:55.191Z,32.10
2018-04-26T08:59:23.832Z,32.10
2018-04-26T09:01:52.755Z,31.40
2018-04-26T09:04:21.982Z,30.20
2018-04-26T09:06:51.048Z,31.40
2018-04-26T09:09:19.938Z,30.80
2018-04-26T09:11:51.433Z,31.00
2018-04-26T09:14:22.015Z,30.90
2018-04-26T09:16:51.746Z,31.20
2018-04-26T09:19:20.628Z,31.20
2018-04-26T09:21:49.568Z,35.50
2018-04-26T09:24:18.658Z,34.10
2018-04-26T09:26:47.507Z,33.10
2018-04-26T09:29:16.555Z,32.00
2018-04-26T09:31:45.703Z,30.60
2018-04-26T09:34:14.463Z,30.20
2018-04-26T09:36:43.127Z,31.10
2018-04-26T09:39:12.882Z,30.40
2018-04-26T09:41:43.187Z,30.40
2018-04-26T09:44:13.779Z,29.00
2018-04-26T09:46:43.041Z,29.00
2018-04-26T09:49:13.127Z,30.60
2018-04-26T09:51:42.031Z,30.60
2018-04-26T09:54:12.006Z,30.60
2018-04-26T09:56:40.886Z,30.90
2018-04-26T09:59:10.417Z,31.10
2018-04-26T10:01:39.648Z,29.40
2018-04-26T10:04:15.201Z,29.00
2018-04-26T10:06:49.436Z,28.50
2018-04-26T10:09:19.516Z,28.00
2018-04-26T10:11:48.886Z,28.30
2018-04-26T10:14:17.906Z,28.10
2018-04-26T10:16:47.143Z,28.80
2018-04-26T10:19:16.507Z,28.40
2018-04-26T10:21:46.455Z,28.90
2018-04-26T10:24:16.274Z,28.80
2018-04-26T10:26:47.677Z,29.70
2018-04-26T10:29:16.379Z,29.60
2018-04-26T10:31:45.408Z,30.40
2018-04-26T10:34:14.106Z,31.90
2018-04-26T10:36:42.900Z,33.10
2018-04-26T10:39:14.749Z,31.50
2018-04-26T10:41:43.979Z,30.90
2018-04-26T10:44:14.166Z,31.60
2018-04-26T10:46:43.799Z,31.60
2018-04-26T10:49:12.530Z,29.60
2018-04-26T10:51:41.524Z,28.90
2018-04-26T10:54:11.399Z,28.00
2018-04-26T10:56:40.133Z,28.00
2018-04-26T10:59:08.855Z,27.60
2018-04-26T11:01:38.181Z,27.90
2018-04-26T11:04:07.548Z,27.00
2018-04-26T11:06:36.496Z,27.00
2018-04-26T11:09:06.380Z,27.50
2018-04-26T11:11:36.605Z,29.60
2018-04-26T11:14:06.371Z,29.60
2018-04-26T11:16:35.453Z,29.10
2018-04-26T11:19:05.528Z,28.00
2018-04-26T11:21:36.379Z,29.00
2018-04-26T11:24:06.563Z,28.50
2018-04-26T11:26:36.179Z,28.70
2018-04-26T11:29:05.941Z,30.80
2018-04-26T11:31:34.761Z,30.70
2018-04-26T11:34:03.903Z,32.30
2018-04-26T11:36:32.835Z,32.20
2018-04-26T11:39:02.408Z,29.20
2018-04-26T11:41:31.368Z,29.20
2018-04-26T11:44:01.254Z,32.70
2018-04-26T11:46:30.555Z,32.60
2018-04-26T11:49:00.157Z,31.10
2018-04-26T11:51:30.262Z,34.10
2018-04-26T11:53:59.837Z,33.30
2018-04-26T11:56:29.625Z,32.10
2018-04-26T11:58:59.113Z,32.20
2018-04-26T12:01:29.210Z,31.90
2018-04-26T12:03:58.688Z,30.60
2018-04-26T12:06:27.686Z,31.10
2018-04-26T12:08:57.085Z,32.60
2018-04-26T12:11:26.261Z,31.50
2018-04-26T12:13:55.766Z,29.40
2018-04-26T12:16:26.277Z,29.80
2018-04-26T12:18:55.863Z,29.10
2018-04-26T12:21:24.931Z,29.10
2018-04-26T12:23:54.580Z,27.70
2018-04-26T12:26:24.039Z,27.70
2018-04-26T12:28:54.818Z,29.60
2018-04-26T12:31:24.592Z,29.60
2018-04-26T12:33:53.673Z,28.90
2018-04-26T12:36:23.835Z,28.60
2018-04-26T12:38:52.871Z,29.70
2018-04-26T12:41:23.361Z,30.80
2018-04-26T12:43:53.041Z,32.00
2018-04-26T12:46:22.438Z,32.10
2018-04-26T12:48:52.179Z,29.20
2018-04-26T12:51:21.852Z,29.10
2018-04-26T12:53:50.762Z,29.20
2018-04-26T12:56:21.242Z,30.80
2018-04-26T12:58:52.785Z,31.50
2018-04-26T13:01:21.547Z,31.50
2018-04-26T13:03:50.750Z,30.20
2018-04-26T13:06:19.700Z,29.00
2018-04-26T13:08:49.389Z,28.80
2018-04-26T13:11:19.629Z,28.10
2018-04-26T13:13:49.517Z,28.00
2018-04-26T13:16:18.556Z,27.50
2018-04-26T13:18:49.309Z,28.50
2018-04-26T13:21:18.321Z,28.40
2018-04-26T13:23:47.925Z,30.00
2018-04-26T13:26:16.759Z,30.00
2018-04-26T13:28:45.696Z,31.20
2018-04-26T13:31:14.454Z,29.70
2018-04-26T13:33:43.248Z,29.80
2018-04-26T13:36:12.770Z,28.70
2018-04-26T13:38:42.513Z,31.30
2018-04-26T13:41:12.336Z,32.00
2018-04-26T13:43:41.417Z,32.50
2018-04-26T13:46:10.887Z,33.30
2018-04-26T13:48:39.929Z,33.30
2018-04-26T13:51:09.308Z,32.50
2018-04-26T13:53:39.331Z,31.70
2018-04-26T13:56:08.855Z,30.60
2018-04-26T13:58:38.483Z,31.90
2018-04-26T14:01:08.026Z,32.00
2018-04-26T14:03:39.394Z,31.10
2018-04-26T14:06:08.858Z,31.10
2018-04-26T14:08:37.543Z,30.10
2018-04-26T14:11:08.603Z,30.10
2018-04-26T14:13:37.472Z,29.10
2018-04-26T14:16:06.143Z,29.60
2018-04-26T14:18:35.257Z,29.70
2018-04-26T14:21:04.533Z,30.10
2018-04-26T14:23:34.571Z,32.30
2018-04-26T14:26:04.587Z,33.10
2018-04-26T14:28:34.178Z,32.60
2018-04-26T14:31:04.371Z,32.90
2018-04-26T14:33:34.377Z,32.30
2018-04-26T14:36:03.841Z,30.70
2018-04-26T14:38:34.516Z,30.80
2018-04-26T14:41:03.253Z,30.70
2018-04-26T14:43:32.521Z,31.40
2018-04-26T14:46:03.255Z,32.00
2018-04-26T14:48:32.234Z,32.00
2018-04-26T14:51:01.349Z,32.80
2018-04-26T14:53:30.561Z,32.30
2018-04-26T14:55:59.543Z,30.80
2018-04-26T14:58:29.229Z,31.90
2018-04-26T15:00:59.361Z,31.80
2018-04-26T15:03:29.849Z,32.80
2018-04-26T15:05:59.530Z,33.90
2018-04-26T15:08:29.377Z,33.20
2018-04-26T15:10:58.011Z,33.90
2018-04-26T15:13:27.040Z,33.50
2018-04-26T15:15:57.129Z,34.30
2018-04-26T15:18:26.955Z,34.30
2018-04-26T15:20:55.895Z,32.40
2018-04-26T15:23:24.899Z,32.90
2018-04-26T15:25:54.472Z,32.40
2018-04-26T15:28:24.995Z,30.90
2018-04-26T15:30:53.799Z,30.80
2018-04-26T15:33:23.987Z,31.30
2018-04-26T15:35:53.250Z,32.30
2018-04-26T15:38:24.440Z,34.10
2018-04-26T15:40:56.096Z,34.10
2018-04-26T15:43:28.287Z,34.70
2018-04-26T15:45:58.994Z,35.30
2018-04-26T15:48:29.571Z,36.70
2018-04-26T15:51:04.628Z,36.20
2018-04-26T15:53:53.926Z,33.80
2018-04-26T15:56:46.604Z,34.70
2018-04-26T15:59:33.654Z,35.80
2018-04-26T16:05:51.631Z,36.90
2018-04-26T16:11:49.821Z,36.20
2018-04-26T16:14:37.573Z,38.30
2018-04-26T16:17:40.404Z,38.50
2018-04-26T16:24:12.433Z,37.90
2018-04-26T16:30:21.435Z,38.00
2018-04-26T16:36:12.471Z,38.10
2018-04-26T16:39:02.830Z,38.10
2018-04-26T16:41:32.768Z,38.20
2018-04-26T16:44:02.717Z,37.70
2018-04-26T16:46:34.819Z,37.60
2018-04-26T16:49:03.984Z,37.60
2018-04-26T16:51:32.818Z,38.90
2018-04-26T16:54:12.073Z,38.30
2018-04-26T16:56:41.396Z,38.20
2018-04-26T16:59:11.429Z,38.40
2018-04-26T17:01:42.393Z,39.50
2018-04-26T17:04:11.730Z,39.70
2018-04-26T17:06:40.753Z,38.40
2018-04-26T17:09:09.741Z,39.90
2018-04-26T17:11:39.050Z,39.90
2018-04-26T17:14:10.220Z,40.10
2018-04-26T17:16:41.699Z,39.40
2018-04-26T17:19:14.841Z,39.10
2018-04-26T17:21:45.541Z,39.80
2018-04-26T17:24:15.600Z,39.70
2018-04-26T17:26:45.824Z,39.10
2018-04-26T17:29:14.484Z,39.70
2018-04-26T17:31:44.420Z,39.80
2018-04-26T17:34:14.324Z,40.30
2018-04-26T17:36:43.729Z,39.70
2018-04-26T17:39:13.647Z,36.40
2018-04-26T17:41:43.191Z,36.40
2018-04-26T17:44:12.151Z,36.30
2018-04-26T17:46:42.362Z,38.00
2018-04-26T17:49:12.191Z,37.90
2018-04-26T17:51:42.761Z,38.60
2018-04-26T17:54:12.644Z,38.90
2018-04-26T17:56:42.435Z,37.50
2018-04-26T17:59:12.651Z,35.30
2018-04-26T18:01:42.032Z,35.20
2018-04-26T18:04:12.198Z,36.00
2018-04-26T18:06:42.168Z,35.40
2018-04-26T18:09:13.024Z,35.60
2018-04-26T18:11:42.337Z,35.60
2018-04-26T18:14:14.069Z,37.00
2018-04-26T18:16:45.438Z,36.80
2018-04-26T18:19:15.627Z,36.80
2018-04-26T18:21:45.446Z,36.30
2018-04-26T18:24:14.756Z,44.20
2018-04-26T18:26:46.086Z,44.30
2018-04-26T18:29:16.440Z,44.30
2018-04-26T18:31:46.408Z,44.50
2018-04-26T18:34:17.801Z,45.80
2018-04-26T18:36:47.566Z,46.30
2018-04-26T18:39:17.005Z,46.70
2018-04-26T18:41:46.423Z,45.00
2018-04-26T18:44:15.091Z,47.70
2018-04-26T18:46:44.911Z,48.90
2018-04-26T18:49:13.628Z,48.70
2018-04-26T18:51:45.391Z,48.80
2018-04-26T18:54:14.601Z,49.10
2018-04-26T18:56:43.414Z,50.00
2018-04-26T18:59:12.989Z,50.00
2018-04-26T19:01:43.165Z,49.80
2018-04-26T19:04:12.687Z,49.80
2018-04-26T19:06:41.540Z,50.40
2018-04-26T19:09:10.345Z,50.50
2018-04-26T19:11:40.297Z,50.60
2018-04-26T19:14:09.833Z,50.20
2018-04-26T19:16:39.700Z,50.70
2018-04-26T19:19:09.840Z,50.10
2018-04-26T19:21:41.138Z,50.60
2018-04-26T19:24:10.070Z,50.20
2018-04-26T19:26:40.411Z,50.90
2018-04-26T19:29:10.483Z,51.10
2018-04-26T19:31:41.365Z,51.60
2018-04-26T19:34:11.587Z,52.90
2018-04-26T19:36:41.252Z,53.60
2018-04-26T19:39:10.212Z,53.20
2018-04-26T19:41:40.188Z,53.10
2018-04-26T19:44:09.379Z,53.60
2018-04-26T19:46:38.439Z,53.10
2018-04-26T19:49:10.282Z,53.70
2018-04-26T19:51:40.256Z,53.70
2018-04-26T19:54:10.475Z,54.70
2018-04-26T19:56:41.748Z,55.20
2018-04-26T19:59:11.399Z,55.40
2018-04-26T20:01:40.822Z,56.30
2018-04-26T20:04:12.647Z,56.40
2018-04-26T20:06:43.327Z,56.10
2018-04-26T20:09:14.658Z,56.80
2018-04-26T20:11:43.799Z,56.70
2018-04-26T20:14:14.912Z,57.40
2018-04-26T20:16:46.006Z,58.10
2018-04-26T20:19:15.490Z,58.10
2018-04-26T20:21:44.640Z,58.40
2018-04-26T20:24:15.733Z,59.00
2018-04-26T20:26:45.087Z,58.90
2018-04-26T20:29:14.661Z,58.90
2018-04-26T20:31:45.005Z,58.90
2018-04-26T20:34:14.486Z,59.20
2018-04-26T20:36:43.987Z,59.50
2018-04-26T20:39:15.080Z,60.60
2018-04-26T20:41:59.357Z,60.60
2018-04-26T20:44:47.198Z,60.40
2018-04-26T20:47:18.630Z,60.40
2018-04-26T20:49:48.398Z,59.70
2018-04-26T20:52:18.579Z,59.70
2018-04-26T20:54:47.759Z,59.30
2018-04-26T20:57:18.326Z,59.20
2018-04-26T20:59:49.379Z,59.20
2018-04-26T21:02:19.523Z,59.20
2018-04-26T21:04:49.888Z,58.80
2018-04-26T21:07:19.075Z,58.70
2018-04-26T21:09:48.482Z,59.30
2018-04-26T21:12:18.040Z,61.80
2018-04-26T21:14:47.890Z,63.50
2018-04-26T21:17:17.315Z,64.70
2018-04-26T21:19:48.513Z,65.40
2018-04-26T21:22:18.022Z,66.10
2018-04-26T21:24:47.851Z,66.50
2018-04-26T21:27:17.356Z,66.90
2018-04-26T21:29:48.477Z,67.20
2018-04-26T21:32:18.637Z,66.40
2018-04-26T21:34:48.104Z,66.50
2018-04-26T21:37:19.055Z,66.10
2018-04-26T21:39:50.305Z,66.80
2018-04-26T21:42:20.647Z,67.20
2018-04-26T21:44:50.431Z,67.20
2018-04-26T21:47:20.541Z,66.00
2018-04-26T21:49:54.926Z,65.90
2018-04-26T21:52:30.848Z,65.50
2018-04-26T21:55:05.571Z,66.90
2018-04-26T21:57:40.521Z,67.50
2018-04-26T22:00:15.054Z,69.20
2018-04-26T22:02:43.637Z,69.70
2018-04-26T22:05:16.292Z,70.00
2018-04-26T22:07:45.986Z,70.30
2018-04-26T22:10:15.874Z,70.60
2018-04-26T22:12:44.801Z,69.60
2018-04-26T22:15:14.016Z,68.20
2018-04-26T22:17:43.067Z,70.90
2018-04-26T22:20:12.980Z,72.40
2018-04-26T22:22:43.166Z,72.40
2018-04-26T22:25:12.858Z,72.20
2018-04-26T22:27:42.222Z,73.00
2018-04-26T22:30:11.518Z,73.20
2018-04-26T22:32:40.962Z,73.60
2018-04-26T22:35:09.983Z,74.20
2018-04-26T22:37:38.789Z,74.60
2018-04-26T22:40:07.759Z,74.90
2018-04-26T22:42:37.532Z,74.90
2018-04-26T22:45:07.400Z,74.90
2018-04-26T22:47:36.968Z,75.80
2018-04-26T22:50:06.189Z,76.50
2018-04-26T22:52:35.883Z,76.00
2018-04-26T22:55:05.640Z,76.10
2018-04-26T22:57:34.553Z,76.40
2018-04-26T23:00:03.500Z,75.30
2018-04-26T23:02:33.043Z,73.40
2018-04-26T23:05:03.166Z,72.40
2018-04-26T23:07:32.499Z,72.40
2018-04-26T23:10:01.266Z,71.90
2018-04-26T23:12:30.380Z,73.40
2018-04-26T23:14:59.287Z,75.20
2018-04-26T23:17:30.099Z,76.10
2018-04-26T23:19:59.533Z,76.00
2018-04-26T23:22:29.988Z,77.10
2018-04-26T23:24:59.499Z,77.00
2018-04-26T23:27:30.008Z,75.30
2018-04-26T23:29:59.693Z,75.30
2018-04-26T23:32:29.552Z,77.80
2018-04-26T23:34:59.598Z,77.80
2018-04-26T23:37:29.359Z,77.20
2018-04-26T23:39:58.543Z,74.10
2018-04-26T23:42:28.839Z,74.90
2018-04-26T23:44:59.288Z,77.60
2018-04-26T23:47:28.923Z,77.80
2018-04-26T23:49:57.942Z,77.80
2018-04-26T23:52:26.700Z,77.30
2018-04-26T23:54:56.339Z,75.70
2018-04-26T23:57:25.676Z,75.00
2018-04-26T23:59:54.660Z,73.90
